Time;durP1;ratioP1;P1;durP2;ratioP2;P2;SDS_P1;SDS_P2;PMS_P1;PMS_P2;Temp;Humidity;BMP_temperature;BMP_pressure;BME280_temperature;BME280_humidity;BME280_pressure;Samples;Min_cycle;Max_cycle;Signal;HPM_P1;HPM_P2
2021/08/04 00:00:04;;;;;;;;;;;15.50;1.00;;;;;;4954229;29;19917;-66
2021/08/04 00:02:30;;;;;;;;;;;15.40;1.00;;;;;;4953637;28;19957;-67
2021/08/04 00:04:55;;;;;;;;;;;15.40;1.00;;;;;;4954007;29;20100;-67
2021/08/04 00:07:21;;;;;;;;;;;15.40;1.00;;;;;;4953448;29;19949;-67
2021/08/04 00:09:46;;;;;;;;;;;15.40;1.00;;;;;;4953914;29;20419;-66
2021/08/04 00:12:11;;;;;;;;;;;15.30;1.00;;;;;;4953053;28;20303;-67
2021/08/04 00:14:37;;;;;;;;;;;15.30;1.00;;;;;;4953922;29;20009;-66
2021/08/04 00:17:03;;;;;;;;;;;15.30;1.00;;;;;;4953825;29;20415;-66
2021/08/04 00:19:28;;;;;;;;;;;15.30;1.00;;;;;;4953348;29;19969;-66
2021/08/04 00:21:54;;;;;;;;;;;15.30;1.00;;;;;;4953571;28;19911;-66
2021/08/04 00:24:19;;;;;;;;;;;15.20;1.00;;;;;;4952633;29;20375;-67
2021/08/04 00:26:45;;;;;;;;;;;15.20;1.00;;;;;;4953218;29;19914;-66
2021/08/04 00:29:10;;;;;;;;;;;15.20;1.00;;;;;;4952980;29;20378;-67
2021/08/04 00:31:36;;;;;;;;;;;15.10;1.00;;;;;;4952931;28;19925;-67
2021/08/04 00:34:01;;;;;;;;;;;15.10;1.00;;;;;;4953898;29;20287;-67
2021/08/04 00:36:27;;;;;;;;;;;15.00;1.00;;;;;;4953114;29;19915;-66
2021/08/04 00:38:52;;;;;;;;;;;15.10;1.00;;;;;;4952968;29;19915;-67
2021/08/04 00:41:18;;;;;;;;;;;15.10;1.00;;;;;;4952900;28;19911;-67
2021/08/04 00:43:43;;;;;;;;;;;15.00;1.00;;;;;;4953435;29;20340;-67
2021/08/04 00:46:11;;;;;;;;;;;15.00;1.00;;;;;;4953047;29;19915;-67
2021/08/04 00:48:36;;;;;;;;;;;15.00;1.00;;;;;;4952357;29;19911;-67
2021/08/04 00:51:02;;;;;;;;;;;15.00;1.00;;;;;;4952950;28;20063;-67
2021/08/04 00:53:28;;;;;;;;;;;15.00;1.00;;;;;;4953062;29;20281;-67
2021/08/04 00:55:55;;;;;;;;;;;15.00;1.00;;;;;;4952831;28;19911;-67
2021/08/04 00:58:34;;;;;;;;;;;15.00;1.00;;;;;;4951960;29;19914;-67
2021/08/04 01:01:11;;;;;;;;;;;15.00;1.00;;;;;;4952852;28;19915;-67
2021/08/04 01:03:40;;;;;;;;;;;15.00;1.00;;;;;;4953191;29;19915;-67
2021/08/04 01:06:08;;;;;;;;;;;15.00;1.00;;;;;;4952809;29;19915;-67
2021/08/04 01:08:34;;;;;;;;;;;15.00;1.00;;;;;;4952112;29;20388;-67
2021/08/04 01:11:03;;;;;;;;;;;15.00;1.00;;;;;;4952523;28;19993;-66
2021/08/04 01:13:33;;;;;;;;;;;15.00;1.00;;;;;;4952669;29;19917;-66
2021/08/04 01:16:09;;;;;;;;;;;15.00;1.00;;;;;;4953218;29;19946;-67
2021/08/04 01:18:55;;;;;;;;;;;14.90;1.00;;;;;;4952075;29;19915;-66
2021/08/04 01:21:28;;;;;;;;;;;14.90;1.00;;;;;;4952789;28;19926;-66
2021/08/04 01:24:23;;;;;;;;;;;14.90;1.00;;;;;;4952904;29;19911;-67
2021/08/04 01:26:49;;;;;;;;;;;14.90;1.00;;;;;;4883170;29;19912;-67
2021/08/04 01:29:16;;;;;;;;;;;14.80;1.00;;;;;;4952352;29;19993;-67
2021/08/04 01:31:43;;;;;;;;;;;14.80;1.00;;;;;;4952378;28;19981;-67
2021/08/04 01:34:09;;;;;;;;;;;14.80;1.00;;;;;;4952644;29;19975;-67
2021/08/04 01:36:34;;;;;;;;;;;14.70;1.00;;;;;;4952667;29;19974;-65
2021/08/04 01:39:00;;;;;;;;;;;14.70;1.00;;;;;;4952569;29;19915;-66
2021/08/04 01:41:26;;;;;;;;;;;14.60;1.00;;;;;;4952755;28;20664;-67
2021/08/04 01:43:53;;;;;;;;;;;14.60;1.00;;;;;;4952513;29;19965;-67
2021/08/04 01:46:21;;;;;;;;;;;14.50;1.00;;;;;;4952568;29;19918;-67
2021/08/04 01:48:46;;;;;;;;;;;14.50;1.00;;;;;;4951584;29;19911;-67
2021/08/04 01:51:12;;;;;;;;;;;14.50;1.00;;;;;;4952322;28;20022;-67
2021/08/04 01:53:39;;;;;;;;;;;14.50;1.00;;;;;;4952627;29;19964;-66
2021/08/04 01:56:05;;;;;;;;;;;14.50;1.00;;;;;;4952345;29;19910;-66
2021/08/04 01:58:30;;;;;;;;;;;14.50;1.00;;;;;;4951666;29;19918;-67
2021/08/04 02:00:56;;;;;;;;;;;14.50;1.00;;;;;;4952129;28;20383;-66
2021/08/04 02:03:21;;;;;;;;;;;14.50;1.00;;;;;;4952286;29;19949;-66
2021/08/04 02:05:47;;;;;;;;;;;14.50;1.00;;;;;;4952490;28;20049;-66
2021/08/04 02:08:20;;;;;;;;;;;14.40;1.00;;;;;;4955037;29;20364;-67
2021/08/04 02:10:48;;;;;;;;;;;14.40;1.00;;;;;;4956018;28;19914;-66
2021/08/04 02:13:30;;;;;;;;;;;14.40;1.00;;;;;;4955172;29;20383;-67
2021/08/04 02:16:16;;;;;;;;;;;14.40;1.00;;;;;;4956129;29;19911;-67
2021/08/04 02:18:45;;;;;;;;;;;14.40;1.00;;;;;;4954812;29;19929;-67
2021/08/04 02:21:12;;;;;;;;;;;14.40;1.00;;;;;;4955344;28;19917;-67
2021/08/04 02:23:38;;;;;;;;;;;14.40;1.00;;;;;;4955778;29;19977;-66
2021/08/04 02:26:12;;;;;;;;;;;14.40;1.00;;;;;;4955679;29;20377;-67
2021/08/04 02:28:39;;;;;;;;;;;14.40;1.00;;;;;;4955621;29;19921;-67
2021/08/04 02:31:08;;;;;;;;;;;14.40;1.00;;;;;;4955032;28;19914;-67
2021/08/04 02:33:34;;;;;;;;;;;14.40;1.00;;;;;;4955455;29;19910;-67
2021/08/04 02:36:00;;;;;;;;;;;14.40;1.00;;;;;;4955710;29;19917;-67
2021/08/04 02:38:25;;;;;;;;;;;14.40;1.00;;;;;;4954839;29;19911;-67
2021/08/04 02:40:51;;;;;;;;;;;14.40;1.00;;;;;;4955380;28;20004;-67
2021/08/04 02:43:18;;;;;;;;;;;14.40;1.00;;;;;;4937564;29;19910;-67
2021/08/04 02:45:44;;;;;;;;;;;14.40;1.00;;;;;;4955499;29;20423;-67
2021/08/04 02:48:10;;;;;;;;;;;14.40;1.00;;;;;;4954755;29;19914;-67
2021/08/04 02:50:36;;;;;;;;;;;14.40;1.00;;;;;;4955438;28;20471;-67
2021/08/04 02:53:02;;;;;;;;;;;14.40;1.00;;;;;;4955261;29;20115;-67
2021/08/04 02:55:27;;;;;;;;;;;14.50;1.00;;;;;;4954954;29;19914;-67
2021/08/04 02:57:53;;;;;;;;;;;14.50;1.00;;;;;;4954094;29;20013;-67
2021/08/04 03:00:18;;;;;;;;;;;14.40;1.00;;;;;;4955301;29;19915;-67
2021/08/04 03:02:44;;;;;;;;;;;14.40;1.00;;;;;;4954989;28;19914;-67
2021/08/04 03:05:10;;;;;;;;;;;14.40;1.00;;;;;;4955161;29;19910;-67
2021/08/04 03:07:36;;;;;;;;;;;14.50;1.00;;;;;;4953971;29;19921;-67
2021/08/04 03:10:01;;;;;;;;;;;14.50;1.00;;;;;;4954899;29;19911;-67
2021/08/04 03:12:27;;;;;;;;;;;14.50;1.00;;;;;;4954359;28;19918;-67
2021/08/04 03:14:52;;;;;;;;;;;14.50;1.00;;;;;;4954966;29;19914;-67
2021/08/04 03:17:17;;;;;;;;;;;14.60;1.00;;;;;;4954032;28;19922;-67
2021/08/04 03:19:43;;;;;;;;;;;14.60;1.00;;;;;;4954567;29;19921;-67
2021/08/04 03:22:09;;;;;;;;;;;14.60;1.00;;;;;;4954771;28;19917;-67
2021/08/04 03:24:34;;;;;;;;;;;14.60;1.00;;;;;;4954724;29;19911;-67
2021/08/04 03:27:00;;;;;;;;;;;14.60;1.00;;;;;;4954305;29;19917;-67
2021/08/04 03:29:25;;;;;;;;;;;14.60;1.00;;;;;;4954273;29;19911;-66
2021/08/04 03:31:51;;;;;;;;;;;14.60;1.00;;;;;;4954234;28;19976;-66
2021/08/04 03:34:16;;;;;;;;;;;14.60;1.00;;;;;;4954778;29;19922;-67
2021/08/04 03:36:42;;;;;;;;;;;14.60;1.00;;;;;;4954498;29;19917;-67
2021/08/04 03:39:07;;;;;;;;;;;14.60;1.00;;;;;;4953713;29;19914;-67
2021/08/04 03:41:33;;;;;;;;;;;14.60;1.00;;;;;;4953743;28;19914;-67
2021/08/04 03:43:58;;;;;;;;;;;14.60;1.00;;;;;;4954739;29;20412;-67
2021/08/04 03:46:24;;;;;;;;;;;14.60;1.00;;;;;;4954160;29;20434;-66
2021/08/04 03:48:49;;;;;;;;;;;14.60;1.00;;;;;;4953772;29;19993;-67
2021/08/04 03:51:15;;;;;;;;;;;14.60;1.00;;;;;;4954097;28;20399;-67
2021/08/04 03:53:40;;;;;;;;;;;14.60;1.00;;;;;;4953980;29;20101;-67
2021/08/04 03:56:06;;;;;;;;;;;14.60;1.00;;;;;;4954584;29;19914;-67
2021/08/04 03:58:31;;;;;;;;;;;14.60;1.00;;;;;;4953262;29;19950;-67
2021/08/04 04:00:57;;;;;;;;;;;14.60;1.00;;;;;;4953937;28;20017;-66
2021/08/04 04:03:22;;;;;;;;;;;14.60;1.00;;;;;;4954036;29;20022;-67
2021/08/04 04:05:48;;;;;;;;;;;14.50;1.00;;;;;;4953650;29;19918;-67
2021/08/04 04:08:13;;;;;;;;;;;14.50;1.00;;;;;;4953066;29;19917;-67
2021/08/04 04:10:39;;;;;;;;;;;14.50;1.00;;;;;;4953611;28;19911;-66
2021/08/04 04:13:04;;;;;;;;;;;14.50;1.00;;;;;;4953302;29;19970;-66
2021/08/04 04:15:30;;;;;;;;;;;14.40;1.00;;;;;;4954104;29;19917;-67
2021/08/04 04:17:55;;;;;;;;;;;14.40;1.00;;;;;;4952689;29;19910;-67
2021/08/04 04:20:21;;;;;;;;;;;14.40;1.00;;;;;;4954085;29;19917;-67
2021/08/04 04:22:46;;;;;;;;;;;14.40;1.00;;;;;;4953446;28;19914;-67
2021/08/04 04:25:13;;;;;;;;;;;14.50;1.00;;;;;;4953828;29;20218;-66
2021/08/04 04:27:39;;;;;;;;;;;14.50;1.00;;;;;;4952440;29;19929;-67
2021/08/04 04:30:05;;;;;;;;;;;14.40;1.00;;;;;;4952680;28;19950;-66
2021/08/04 04:32:30;;;;;;;;;;;14.40;1.00;;;;;;4953736;28;19953;-66
2021/08/04 04:34:56;;;;;;;;;;;14.40;1.00;;;;;;4953537;29;19921;-66
2021/08/04 04:37:21;;;;;;;;;;;14.50;1.00;;;;;;4953089;29;20324;-67
2021/08/04 04:39:47;;;;;;;;;;;14.50;1.00;;;;;;4953371;29;19942;-66
2021/08/04 04:42:12;;;;;;;;;;;14.60;1.00;;;;;;4952486;28;20431;-66
2021/08/04 04:44:38;;;;;;;;;;;14.50;1.00;;;;;;4953621;29;19911;-67
2021/08/04 04:47:03;;;;;;;;;;;14.50;1.00;;;;;;4953031;29;20324;-66
2021/08/04 04:49:29;;;;;;;;;;;14.50;1.00;;;;;;4952658;29;19926;-67
2021/08/04 04:51:54;;;;;;;;;;;14.60;1.00;;;;;;4952656;28;19918;-67
2021/08/04 04:54:20;;;;;;;;;;;14.60;1.00;;;;;;4952942;29;19914;-67
2021/08/04 04:56:45;;;;;;;;;;;14.70;1.00;;;;;;4952688;29;19911;-66
2021/08/04 04:59:11;;;;;;;;;;;14.70;1.00;;;;;;4952705;29;19910;-67
2021/08/04 05:01:36;;;;;;;;;;;14.80;1.00;;;;;;4952897;28;19915;-66
2021/08/04 05:04:01;;;;;;;;;;;14.80;1.00;;;;;;4952972;29;19940;-66
2021/08/04 05:06:27;;;;;;;;;;;14.90;1.00;;;;;;4952473;29;19910;-66
2021/08/04 05:08:53;;;;;;;;;;;14.90;1.00;;;;;;4952332;29;20356;-66
2021/08/04 05:11:18;;;;;;;;;;;15.00;1.00;;;;;;4952124;28;20054;-66
2021/08/04 05:13:44;;;;;;;;;;;15.10;1.00;;;;;;4952723;29;19933;-66
2021/08/04 05:16:09;;;;;;;;;;;15.20;1.00;;;;;;4952727;29;19932;-67
2021/08/04 05:18:35;;;;;;;;;;;15.30;1.00;;;;;;4952002;29;19911;-67
2021/08/04 05:21:00;;;;;;;;;;;15.50;1.00;;;;;;4952758;28;20320;-66
2021/08/04 05:23:26;;;;;;;;;;;15.60;1.00;;;;;;4952523;29;19932;-67
2021/08/04 05:25:51;;;;;;;;;;;15.80;1.00;;;;;;4952901;29;19946;-66
2021/08/04 05:28:17;;;;;;;;;;;15.90;1.00;;;;;;4951382;29;19961;-67
2021/08/04 05:30:42;;;;;;;;;;;16.00;1.00;;;;;;4952481;28;19936;-66
2021/08/04 05:33:08;;;;;;;;;;;16.20;1.00;;;;;;4952473;29;19978;-66
2021/08/04 05:35:33;;;;;;;;;;;16.40;1.00;;;;;;4953196;29;20017;-67
2021/08/04 05:37:59;;;;;;;;;;;16.50;1.00;;;;;;4951935;29;19914;-66
2021/08/04 05:40:24;;;;;;;;;;;16.60;1.00;;;;;;4953124;28;19911;-67
2021/08/04 05:42:50;;;;;;;;;;;16.90;1.00;;;;;;4956377;28;19986;-67
2021/08/04 05:45:15;;;;;;;;;;;17.30;1.00;;;;;;4956573;29;19911;-65
2021/08/04 05:47:41;;;;;;;;;;;17.50;99.90;;;;;;4956413;29;19981;-67
2021/08/04 05:50:06;;;;;;;;;;;17.60;99.90;;;;;;4957121;29;19925;-66
2021/08/04 05:52:32;;;;;;;;;;;17.70;1.00;;;;;;4956652;28;19958;-66
2021/08/04 05:54:57;;;;;;;;;;;17.70;1.00;;;;;;4956412;29;19915;-65
2021/08/04 05:57:23;;;;;;;;;;;17.80;99.90;;;;;;4955358;29;20001;-66
2021/08/04 05:59:48;;;;;;;;;;;17.90;1.00;;;;;;4956432;29;19918;-65
2021/08/04 06:02:14;;;;;;;;;;;17.90;1.00;;;;;;4955958;28;19910;-65
2021/08/04 06:04:39;;;;;;;;;;;17.90;1.00;;;;;;4955820;29;19917;-66
2021/08/04 06:07:05;;;;;;;;;;;18.00;1.00;;;;;;4955934;29;19914;-66
2021/08/04 06:09:31;;;;;;;;;;;18.20;99.90;;;;;;4955444;29;19993;-66
2021/08/04 06:11:57;;;;;;;;;;;18.40;1.00;;;;;;4955293;28;20303;-66
2021/08/04 06:14:22;;;;;;;;;;;18.60;1.00;;;;;;4956004;29;19915;-66
2021/08/04 06:16:48;;;;;;;;;;;18.80;99.90;;;;;;4955617;29;19918;-66
2021/08/04 06:19:13;;;;;;;;;;;19.30;11.20;;;;;;4955217;29;19911;-66
2021/08/04 06:21:39;;;;;;;;;;;20.50;1.00;;;;;;4955503;28;20198;-66
2021/08/04 06:24:04;;;;;;;;;;;21.00;1.00;;;;;;4955897;29;19914;-67
2021/08/04 06:26:29;;;;;;;;;;;21.10;1.00;;;;;;4938063;29;19915;-66
2021/08/04 06:28:55;;;;;;;;;;;20.80;1.00;;;;;;4954975;29;19986;-66
2021/08/04 06:31:20;;;;;;;;;;;20.60;1.00;;;;;;4955118;28;19926;-66
2021/08/04 06:33:46;;;;;;;;;;;20.20;1.00;;;;;;4954994;29;19919;-66
2021/08/04 06:36:11;;;;;;;;;;;20.30;1.00;;;;;;4955374;29;19911;-66
2021/08/04 06:38:37;;;;;;;;;;;20.40;1.00;;;;;;4954907;29;20374;-66
2021/08/04 06:41:03;;;;;;;;;;;20.60;1.00;;;;;;4955055;28;19914;-66
2021/08/04 06:43:28;;;;;;;;;;;20.80;1.00;;;;;;4955021;29;19910;-68
2021/08/04 06:45:54;;;;;;;;;;;21.10;1.00;;;;;;4955416;29;19922;-66
2021/08/04 06:48:19;;;;;;;;;;;21.30;1.00;;;;;;4954618;29;19958;-66
2021/08/04 06:50:45;;;;;;;;;;;21.10;1.00;;;;;;4954994;28;19918;-66
2021/08/04 06:53:10;;;;;;;;;;;21.20;1.00;;;;;;4954387;28;20023;-66
2021/08/04 06:55:36;;;;;;;;;;;21.30;1.00;;;;;;4955469;29;20318;-66
2021/08/04 06:58:02;;;;;;;;;;;21.70;1.00;;;;;;4953940;29;20372;-66
2021/08/04 07:00:27;;;;;;;;;;;22.10;1.00;;;;;;4955294;29;19910;-66
2021/08/04 07:02:53;;;;;;;;;;;22.50;1.00;;;;;;4954874;28;19981;-67
2021/08/04 07:05:18;;;;;;;;;;;23.10;1.00;;;;;;4954562;29;20449;-67
2021/08/04 07:07:44;;;;;;;;;;;23.60;99.90;;;;;;4954495;29;19922;-66
2021/08/04 07:10:10;;;;;;;;;;;24.90;99.90;;;;;;4955075;29;19920;-67
2021/08/04 07:12:35;;;;;;;;;;;26.70;99.90;;;;;;4954685;28;19922;-67
2021/08/04 07:15:01;;;;;;;;;;;29.00;99.90;;;;;;4955041;29;19910;-67
2021/08/04 07:17:26;;;;;;;;;;;31.10;99.90;;;;;;4953785;29;20375;-67
2021/08/04 07:19:52;;;;;;;;;;;32.60;99.90;;;;;;4954482;29;19970;-67
2021/08/04 07:22:17;;;;;;;;;;;33.70;99.90;;;;;;4954743;28;19953;-67
2021/08/04 07:24:43;;;;;;;;;;;34.90;99.90;;;;;;4954689;29;20371;-67
2021/08/04 07:27:09;;;;;;;;;;;36.40;99.90;;;;;;4954036;29;19957;-68
2021/08/04 07:29:34;;;;;;;;;;;37.00;99.90;;;;;;4953957;29;19957;-68
2021/08/04 07:31:59;;;;;;;;;;;37.90;99.90;;;;;;4954146;28;20340;-65
2021/08/04 07:34:25;;;;;;;;;;;38.60;99.90;;;;;;4954457;29;19922;-66
2021/08/04 07:36:51;;;;;;;;;;;38.60;99.90;;;;;;4954412;29;20179;-67
2021/08/04 07:39:17;;;;;;;;;;;39.10;99.90;;;;;;4954134;29;20336;-67
2021/08/04 07:41:43;;;;;;;;;;;40.00;99.90;;;;;;4953673;28;19964;-67
2021/08/04 07:44:08;;;;;;;;;;;39.00;99.90;;;;;;4954546;29;20000;-66
2021/08/04 07:46:34;;;;;;;;;;;37.50;99.90;;;;;;4954153;29;19974;-67
2021/08/04 07:48:59;;;;;;;;;;;35.50;99.90;;;;;;4953437;29;19910;-66
2021/08/04 07:51:25;;;;;;;;;;;33.30;99.90;;;;;;4953575;28;20030;-66
2021/08/04 07:53:50;;;;;;;;;;;31.80;99.90;;;;;;4954210;29;19911;-66
2021/08/04 07:56:21;;;;;;;;;;;30.00;99.90;;;;;;4953381;29;20295;-66
2021/08/04 07:58:47;;;;;;;;;;;28.60;99.90;;;;;;4935663;29;19915;-66
2021/08/04 08:01:12;;;;;;;;;;;28.00;99.90;;;;;;4953616;28;19911;-67
2021/08/04 08:03:38;;;;;;;;;;;27.70;99.90;;;;;;4953085;28;19918;-66
2021/08/04 08:06:03;;;;;;;;;;;27.60;99.90;;;;;;4953514;29;20008;-66
2021/08/04 08:08:29;;;;;;;;;;;27.60;99.90;;;;;;4953226;29;19910;-66
2021/08/04 08:10:54;;;;;;;;;;;27.90;99.90;;;;;;4953897;28;19910;-66
2021/08/04 08:13:20;;;;;;;;;;;27.50;99.90;;;;;;4953348;29;19915;-65
2021/08/04 08:15:46;;;;;;;;;;;26.20;99.90;;;;;;4953609;29;19910;-66
2021/08/04 08:18:12;;;;;;;;;;;26.50;99.90;;;;;;4952967;29;19910;-65
2021/08/04 08:20:38;;;;;;;;;;;26.50;99.90;;;;;;4953451;28;20382;-66
2021/08/04 08:23:04;;;;;;;;;;;26.50;99.90;;;;;;4953448;29;19920;-66
2021/08/04 08:25:30;;;;;;;;;;;26.50;99.90;;;;;;4953315;29;19946;-66
2021/08/04 08:27:56;;;;;;;;;;;26.60;99.90;;;;;;4952658;29;19998;-66
2021/08/04 08:30:21;;;;;;;;;;;26.20;99.90;;;;;;4953406;29;19917;-66
2021/08/04 08:32:48;;;;;;;;;;;25.70;99.90;;;;;;4953105;28;20315;-66
2021/08/04 08:35:15;;;;;;;;;;;25.10;99.90;;;;;;4953326;29;19918;-65
2021/08/04 08:37:40;;;;;;;;;;;24.60;99.90;;;;;;4952522;29;20224;-65
2021/08/04 08:40:06;;;;;;;;;;;24.30;99.90;;;;;;4953362;29;19914;-66
2021/08/04 08:42:32;;;;;;;;;;;24.00;99.90;;;;;;4952875;28;19914;-66
2021/08/04 08:44:58;;;;;;;;;;;23.50;99.90;;;;;;4953269;29;19910;-66
2021/08/04 08:47:23;;;;;;;;;;;23.50;99.90;;;;;;4952828;29;20001;-65
2021/08/04 08:49:50;;;;;;;;;;;23.30;99.90;;;;;;4953184;29;20324;-66
2021/08/04 08:52:15;;;;;;;;;;;23.40;99.90;;;;;;4953276;28;19961;-67
2021/08/04 08:54:41;;;;;;;;;;;23.50;99.90;;;;;;4953237;29;19959;-66
2021/08/04 08:57:06;;;;;;;;;;;23.70;99.90;;;;;;4952555;29;20256;-66
2021/08/04 08:59:32;;;;;;;;;;;23.90;99.90;;;;;;4952460;29;19911;-66
2021/08/04 09:01:57;;;;;;;;;;;24.10;99.90;;;;;;4952398;28;20335;-66
2021/08/04 09:04:23;;;;;;;;;;;24.20;99.90;;;;;;4953064;29;19980;-66
2021/08/04 09:06:48;;;;;;;;;;;24.40;99.90;;;;;;4952881;29;19932;-66
2021/08/04 09:09:18;;;;;;;;;;;24.50;99.90;;;;;;4952165;29;20387;-65
2021/08/04 09:11:43;;;;;;;;;;;24.50;99.90;;;;;;4952577;28;19918;-67
2021/08/04 09:14:09;;;;;;;;;;;24.80;99.90;;;;;;4952524;29;19922;-66
2021/08/04 09:16:36;;;;;;;;;;;25.10;99.90;;;;;;4952246;28;19941;-66
2021/08/04 09:19:01;;;;;;;;;;;25.50;99.90;;;;;;4952331;29;19945;-66
2021/08/04 09:21:27;;;;;;;;;;;26.00;99.90;;;;;;4952501;28;19958;-66
2021/08/04 09:23:55;;;;;;;;;;;25.80;99.90;;;;;;4952811;29;19922;-66
2021/08/04 09:26:24;;;;;;;;;;;25.90;99.90;;;;;;4951880;29;19910;-65
2021/08/04 09:28:55;;;;;;;;;;;26.00;99.90;;;;;;4952315;29;20017;-65
2021/08/04 09:31:22;;;;;;;;;;;26.50;99.90;;;;;;4951776;28;19923;-65
2021/08/04 09:33:48;;;;;;;;;;;27.10;99.90;;;;;;4952553;29;19965;-66
2021/08/04 09:36:27;;;;;;;;;;;27.00;99.90;;;;;;4952444;29;19958;-67
2021/08/04 09:39:05;;;;;;;;;;;27.40;99.90;;;;;;4952053;29;19914;-67
2021/08/04 09:41:31;;;;;;;;;;;28.20;99.90;;;;;;4951908;28;19953;-67
2021/08/04 09:44:04;;;;;;;;;;;29.20;99.90;;;;;;4952708;29;20241;-67
2021/08/04 09:46:29;;;;;;;;;;;29.50;99.90;;;;;;4952240;29;19914;-67
2021/08/04 09:49:08;;;;;;;;;;;29.20;99.90;;;;;;4951756;29;19911;-67
2021/08/04 09:51:33;;;;;;;;;;;29.50;99.90;;;;;;4952110;28;19915;-67
2021/08/04 09:54:09;;;;;;;;;;;30.60;99.90;;;;;;4952190;29;20332;-67
2021/08/04 09:56:58;;;;;;;;;;;30.60;99.90;;;;;;4951790;29;19914;-67
2021/08/04 09:59:25;;;;;;;;;;;30.30;99.90;;;;;;4952086;29;19910;-67
2021/08/04 10:01:50;;;;;;;;;;;29.50;99.90;;;;;;4952007;28;20355;-67
2021/08/04 10:04:17;;;;;;;;;;;29.80;99.90;;;;;;4952252;29;19915;-67
2021/08/04 10:06:44;;;;;;;;;;;29.60;99.90;;;;;;4952130;29;19910;-67
2021/08/04 10:09:11;;;;;;;;;;;29.10;99.90;;;;;;4951602;29;19958;-67
2021/08/04 10:11:42;;;;;;;;;;;29.30;99.90;;;;;;4951789;28;20292;-67
2021/08/04 10:14:08;;;;;;;;;;;29.60;99.90;;;;;;4952069;29;20352;-67
2021/08/04 10:16:34;;;;;;;;;;;30.00;99.90;;;;;;4951736;29;19918;-67
2021/08/04 10:19:03;;;;;;;;;;;30.30;99.90;;;;;;4951404;29;19910;-67
2021/08/04 10:21:29;;;;;;;;;;;31.00;99.90;;;;;;4951983;28;20057;-67
2021/08/04 10:23:55;;;;;;;;;;;30.80;99.90;;;;;;4951985;29;19993;-66
2021/08/04 10:26:21;;;;;;;;;;;29.90;99.90;;;;;;4951728;28;19953;-67
2021/08/04 10:28:46;;;;;;;;;;;28.80;99.90;;;;;;4953916;29;19919;-66
2021/08/04 10:31:14;;;;;;;;;;;27.60;99.90;;;;;;4955668;28;19930;-67
2021/08/04 10:33:40;;;;;;;;;;;26.90;99.90;;;;;;4955454;29;19918;-67
2021/08/04 10:36:07;;;;;;;;;;;26.60;99.90;;;;;;4955792;29;19921;-67
2021/08/04 10:38:36;;;;;;;;;;;26.40;99.90;;;;;;4954339;29;19921;-67
2021/08/04 10:41:22;;;;;;;;;;;26.70;99.90;;;;;;4955199;28;20204;-67
2021/08/04 10:43:52;;;;;;;;;;;27.70;99.90;;;;;;4954747;29;20009;-67
2021/08/04 10:46:26;;;;;;;;;;;28.10;99.90;;;;;;4955448;29;19911;-67
2021/08/04 10:48:52;;;;;;;;;;;28.50;99.90;;;;;;4954274;29;19911;-68
2021/08/04 10:51:18;;;;;;;;;;;28.90;99.90;;;;;;4955222;28;19917;-67
2021/08/04 10:54:02;;;;;;;;;;;29.60;99.90;;;;;;4955470;29;19918;-67
2021/08/04 10:56:37;;;;;;;;;;;29.60;99.90;;;;;;4954824;29;19911;-68
2021/08/04 10:59:25;;;;;;;;;;;29.60;99.90;;;;;;4954579;29;19910;-67
2021/08/04 11:01:55;;;;;;;;;;;30.10;99.90;;;;;;4944589;28;20074;-66
2021/08/04 11:04:26;;;;;;;;;;;30.80;99.90;;;;;;4954990;29;20341;-67
2021/08/04 11:07:10;;;;;;;;;;;30.60;99.90;;;;;;4954837;29;19910;-66
2021/08/04 11:09:37;;;;;;;;;;;30.30;99.90;;;;;;4954613;29;19914;-66
2021/08/04 11:12:03;;;;;;;;;;;29.80;99.90;;;;;;4954501;28;19914;-67
2021/08/04 11:14:38;;;;;;;;;;;28.60;99.90;;;;;;4954826;29;19918;-67
2021/08/04 11:17:04;;;;;;;;;;;28.60;99.90;;;;;;4954656;29;19911;-67
2021/08/04 11:19:36;;;;;;;;;;;27.70;99.90;;;;;;4954118;29;19917;-67
2021/08/04 11:22:17;;;;;;;;;;;26.20;99.90;;;;;;4954536;28;19914;-66
2021/08/04 11:24:53;;;;;;;;;;;25.90;99.90;;;;;;4954885;29;19999;-67
2021/08/04 11:27:19;;;;;;;;;;;25.40;99.90;;;;;;4953683;29;20372;-67
2021/08/04 11:29:45;;;;;;;;;;;26.00;99.90;;;;;;4954597;29;19911;-67
2021/08/04 11:32:18;;;;;;;;;;;26.40;99.90;;;;;;4954164;28;19918;-67
2021/08/04 11:34:43;;;;;;;;;;;27.40;99.90;;;;;;4954449;29;20343;-66
2021/08/04 11:37:09;;;;;;;;;;;28.20;99.90;;;;;;4954346;29;20010;-67
2021/08/04 11:39:34;;;;;;;;;;;28.20;99.90;;;;;;4953923;28;20276;-67
2021/08/04 11:42:05;;;;;;;;;;;27.90;99.90;;;;;;4953963;28;20368;-67
2021/08/04 11:44:31;;;;;;;;;;;27.90;99.90;;;;;;4954652;29;20353;-68
2021/08/04 11:47:04;;;;;;;;;;;26.60;99.90;;;;;;4954174;29;20031;-67
2021/08/04 11:49:31;;;;;;;;;;;26.20;99.90;;;;;;4953703;29;19915;-68
2021/08/04 11:52:18;;;;;;;;;;;26.50;99.90;;;;;;4954108;28;20484;-68
2021/08/04 11:54:44;;;;;;;;;;;26.70;99.90;;;;;;4955106;29;19911;-68
2021/08/04 11:57:11;;;;;;;;;;;26.10;99.90;;;;;;4953646;29;19910;-67
2021/08/04 11:59:40;;;;;;;;;;;26.10;99.90;;;;;;4955393;29;19915;-67
2021/08/04 12:02:07;;;;;;;;;;;26.30;99.90;;;;;;4954928;28;19914;-67
2021/08/04 12:04:40;;;;;;;;;;;25.80;99.90;;;;;;4954485;29;19910;-67
2021/08/04 12:07:06;;;;;;;;;;;26.00;99.90;;;;;;4953953;29;20292;-67
2021/08/04 12:09:33;;;;;;;;;;;26.40;99.90;;;;;;4953013;29;19917;-68
2021/08/04 12:11:59;;;;;;;;;;;26.70;99.90;;;;;;4953325;28;19915;-67
2021/08/04 12:14:25;;;;;;;;;;;25.70;99.90;;;;;;4953694;29;19911;-67
2021/08/04 12:16:52;;;;;;;;;;;25.70;99.90;;;;;;4953547;29;19969;-65
2021/08/04 12:19:27;;;;;;;;;;;26.10;99.90;;;;;;4952700;29;19957;-66
2021/08/04 12:21:52;;;;;;;;;;;26.50;99.90;;;;;;4953249;28;19944;-68
2021/08/04 12:24:18;;;;;;;;;;;26.40;99.90;;;;;;4953635;29;19915;-67
2021/08/04 12:26:45;;;;;;;;;;;25.60;99.90;;;;;;4953253;29;20014;-66
2021/08/04 12:29:23;;;;;;;;;;;25.60;99.90;;;;;;4953321;29;20237;-68
2021/08/04 12:32:09;;;;;;;;;;;25.00;99.90;;;;;;4953056;28;19923;-68
2021/08/04 12:34:44;;;;;;;;;;;23.40;99.90;;;;;;4952486;29;20148;-68
2021/08/04 12:37:11;;;;;;;;;;;23.70;99.90;;;;;;4953063;29;20367;-67
2021/08/04 12:39:37;;;;;;;;;;;23.30;99.90;;;;;;4953068;29;19917;-67
2021/08/04 12:42:02;;;;;;;;;;;23.30;99.90;;;;;;4952810;28;20184;-68
2021/08/04 12:44:28;;;;;;;;;;;23.80;99.90;;;;;;4953423;29;19910;-68
2021/08/04 12:46:54;;;;;;;;;;;23.80;99.90;;;;;;4952847;29;19910;-68
2021/08/04 12:49:26;;;;;;;;;;;24.00;99.90;;;;;;4935489;29;19911;-67
2021/08/04 12:51:53;;;;;;;;;;;23.50;99.90;;;;;;4952249;28;19950;-67
2021/08/04 12:54:25;;;;;;;;;;;23.50;99.90;;;;;;4953159;29;19929;-66
2021/08/04 12:56:50;;;;;;;;;;;23.80;99.90;;;;;;4952697;29;20328;-68
2021/08/04 12:59:19;;;;;;;;;;;23.50;99.90;;;;;;4952563;29;19954;-68
2021/08/04 13:01:49;;;;;;;;;;;23.20;99.90;;;;;;4952389;28;19914;-68
2021/08/04 13:04:14;;;;;;;;;;;22.80;99.90;;;;;;4953017;29;20398;-66
2021/08/04 13:06:55;;;;;;;;;;;22.60;99.90;;;;;;4952819;29;19911;-68
2021/08/04 13:09:21;;;;;;;;;;;22.20;99.90;;;;;;4952385;29;20245;-68
2021/08/04 13:11:48;;;;;;;;;;;22.50;99.90;;;;;;4951961;28;19915;-68
2021/08/04 13:14:13;;;;;;;;;;;22.70;99.90;;;;;;4952717;29;19918;-68
2021/08/04 13:16:40;;;;;;;;;;;23.00;99.90;;;;;;4952638;29;20264;-68
2021/08/04 13:19:22;;;;;;;;;;;22.90;99.90;;;;;;4952070;29;19918;-68
2021/08/04 13:21:57;;;;;;;;;;;22.70;99.90;;;;;;4952216;28;19965;-68
2021/08/04 13:24:26;;;;;;;;;;;22.80;99.90;;;;;;4953123;29;19915;-68
2021/08/04 13:26:52;;;;;;;;;;;23.00;99.90;;;;;;4952169;29;19938;-68
2021/08/04 13:29:46;;;;;;;;;;;23.00;99.90;;;;;;4952131;29;19914;-68
2021/08/04 13:32:12;;;;;;;;;;;23.20;99.90;;;;;;4935126;28;19918;-68
2021/08/04 13:34:37;;;;;;;;;;;23.20;99.90;;;;;;4952566;29;20001;-68
2021/08/04 13:37:03;;;;;;;;;;;22.60;99.90;;;;;;4952459;29;20368;-67
2021/08/04 13:39:28;;;;;;;;;;;22.40;99.90;;;;;;4952257;29;19911;-67
2021/08/04 13:41:54;;;;;;;;;;;21.70;99.90;;;;;;4951736;28;20440;-67
2021/08/04 13:44:19;;;;;;;;;;;21.50;99.90;;;;;;4952663;29;19910;-68
2021/08/04 13:46:45;;;;;;;;;;;21.70;99.90;;;;;;4952252;29;19917;-67
2021/08/04 13:49:10;;;;;;;;;;;21.70;99.90;;;;;;4951904;29;20332;-68
2021/08/04 13:51:36;;;;;;;;;;;21.60;99.90;;;;;;4952045;28;19914;-68
2021/08/04 13:54:01;;;;;;;;;;;21.60;99.90;;;;;;4952127;29;19933;-67
2021/08/04 13:56:26;;;;;;;;;;;21.40;99.90;;;;;;4951832;29;19911;-68
2021/08/04 13:58:52;;;;;;;;;;;21.50;99.90;;;;;;4951680;29;20049;-67
2021/08/04 14:01:18;;;;;;;;;;;21.70;99.90;;;;;;4951896;28;19925;-68
2021/08/04 14:03:43;;;;;;;;;;;21.60;99.90;;;;;;4954689;29;19961;-67
2021/08/04 14:06:08;;;;;;;;;;;21.40;99.90;;;;;;4955398;29;19922;-68
2021/08/04 14:08:34;;;;;;;;;;;21.50;99.90;;;;;;4955325;29;19914;-67
2021/08/04 14:11:00;;;;;;;;;;;21.40;99.90;;;;;;4956112;28;20037;-67
2021/08/04 14:13:25;;;;;;;;;;;21.40;99.90;;;;;;4955715;29;19961;-68
2021/08/04 14:15:51;;;;;;;;;;;21.60;99.90;;;;;;4955889;29;19915;-67
2021/08/04 14:18:16;;;;;;;;;;;21.60;99.90;;;;;;4954781;29;19974;-67
2021/08/04 14:20:42;;;;;;;;;;;21.80;99.90;;;;;;4955523;28;19937;-67
2021/08/04 14:23:08;;;;;;;;;;;21.90;99.90;;;;;;4955533;29;19911;-67